sensor_id;sensor_type;location;lat;lon;timestamp;P1;durP1;ratioP1;P2;durP2;ratioP2
20482;SDS011;10400;53.198;6.592;2023-05-07T00:01:58;35.67;;;22.33;;
20482;SDS011;10400;53.198;6.592;2023-05-07T00:04:24;33.13;;;22.70;;
20482;SDS011;10400;53.198;6.592;2023-05-07T00:06:50;37.75;;;22.10;;
20482;SDS011;10400;53.198;6.592;2023-05-07T00:09:16;31.80;;;21.40;;
20482;SDS011;10400;53.198;6.592;2023-05-07T00:11:41;31.63;;;22.40;;
20482;SDS011;10400;53.198;6.592;2023-05-07T00:14:09;33.97;;;22.60;;
20482;SDS011;10400;53.198;6.592;2023-05-07T00:16:35;36.42;;;23.80;;
20482;SDS011;10400;53.198;6.592;2023-05-07T00:19:00;32.92;;;22.77;;
20482;SDS011;10400;53.198;6.592;2023-05-07T00:21:29;31.67;;;22.40;;
20482;SDS011;10400;53.198;6.592;2023-05-07T00:24:00;30.90;;;22.52;;
20482;SDS011;10400;53.198;6.592;2023-05-07T00:26:26;31.30;;;23.02;;
20482;SDS011;10400;53.198;6.592;2023-05-07T00:28:52;34.55;;;24.83;;
20482;SDS011;10400;53.198;6.592;2023-05-07T00:31:17;35.85;;;25.30;;
20482;SDS011;10400;53.198;6.592;2023-05-07T00:33:43;36.35;;;25.35;;
20482;SDS011;10400;53.198;6.592;2023-05-07T00:36:08;39.53;;;24.92;;
20482;SDS011;10400;53.198;6.592;2023-05-07T00:38:34;37.42;;;27.60;;
20482;SDS011;10400;53.198;6.592;2023-05-07T00:41:03;38.35;;;29.63;;
20482;SDS011;10400;53.198;6.592;2023-05-07T00:43:29;37.20;;;28.45;;
20482;SDS011;10400;53.198;6.592;2023-05-07T00:45:54;41.35;;;29.25;;
20482;SDS011;10400;53.198;6.592;2023-05-07T00:48:20;42.38;;;30.05;;
20482;SDS011;10400;53.198;6.592;2023-05-07T00:50:46;45.83;;;30.88;;
20482;SDS011;10400;53.198;6.592;2023-05-07T00:53:13;40.92;;;27.98;;
20482;SDS011;10400;53.198;6.592;2023-05-07T00:55:39;40.30;;;28.10;;
20482;SDS011;10400;53.198;6.592;2023-05-07T00:58:08;38.83;;;25.83;;
20482;SDS011;10400;53.198;6.592;2023-05-07T01:00:36;43.95;;;27.40;;
20482;SDS011;10400;53.198;6.592;2023-05-07T01:03:02;41.35;;;30.65;;
20482;SDS011;10400;53.198;6.592;2023-05-07T01:05:31;37.45;;;28.27;;
20482;SDS011;10400;53.198;6.592;2023-05-07T01:08:55;42.17;;;30.05;;
20482;SDS011;10400;53.198;6.592;2023-05-07T01:38:54;39.33;;;28.23;;
20482;SDS011;10400;53.198;6.592;2023-05-07T01:41:22;42.05;;;27.25;;
20482;SDS011;10400;53.198;6.592;2023-05-07T01:43:48;40.70;;;27.80;;
20482;SDS011;10400;53.198;6.592;2023-05-07T01:46:15;38.47;;;26.92;;
20482;SDS011;10400;53.198;6.592;2023-05-07T01:48:42;38.38;;;26.35;;
20482;SDS011;10400;53.198;6.592;2023-05-07T01:51:11;37.55;;;26.73;;
20482;SDS011;10400;53.198;6.592;2023-05-07T01:53:37;38.28;;;26.13;;
20482;SDS011;10400;53.198;6.592;2023-05-07T01:56:04;35.45;;;24.45;;
20482;SDS011;10400;53.198;6.592;2023-05-07T01:58:30;41.03;;;26.15;;
20482;SDS011;10400;53.198;6.592;2023-05-07T02:00:56;39.67;;;25.60;;
20482;SDS011;10400;53.198;6.592;2023-05-07T02:03:22;36.05;;;25.42;;
20482;SDS011;10400;53.198;6.592;2023-05-07T02:05:47;39.92;;;26.40;;
20482;SDS011;10400;53.198;6.592;2023-05-07T02:08:13;40.50;;;26.33;;
20482;SDS011;10400;53.198;6.592;2023-05-07T02:10:39;38.88;;;25.45;;
20482;SDS011;10400;53.198;6.592;2023-05-07T02:13:04;38.85;;;26.48;;
20482;SDS011;10400;53.198;6.592;2023-05-07T02:15:30;40.40;;;26.50;;
20482;SDS011;10400;53.198;6.592;2023-05-07T02:18:03;48.28;;;32.35;;
20482;SDS011;10400;53.198;6.592;2023-05-07T02:20:31;48.92;;;31.10;;
20482;SDS011;10400;53.198;6.592;2023-05-07T02:22:56;50.22;;;33.58;;
20482;SDS011;10400;53.198;6.592;2023-05-07T02:25:22;46.85;;;32.25;;
20482;SDS011;10400;53.198;6.592;2023-05-07T02:27:48;54.83;;;36.80;;
20482;SDS011;10400;53.198;6.592;2023-05-07T02:30:13;49.92;;;34.70;;
20482;SDS011;10400;53.198;6.592;2023-05-07T02:32:39;49.25;;;33.08;;
20482;SDS011;10400;53.198;6.592;2023-05-07T02:35:05;50.25;;;32.83;;
20482;SDS011;10400;53.198;6.592;2023-05-07T02:37:31;45.53;;;29.40;;
20482;SDS011;10400;53.198;6.592;2023-05-07T02:39:57;41.38;;;27.42;;
20482;SDS011;10400;53.198;6.592;2023-05-07T02:42:22;42.25;;;27.20;;
20482;SDS011;10400;53.198;6.592;2023-05-07T02:44:48;39.88;;;25.75;;
20482;SDS011;10400;53.198;6.592;2023-05-07T02:47:14;39.92;;;27.00;;
20482;SDS011;10400;53.198;6.592;2023-05-07T02:49:40;40.65;;;28.00;;
20482;SDS011;10400;53.198;6.592;2023-05-07T02:52:06;47.63;;;29.25;;
20482;SDS011;10400;53.198;6.592;2023-05-07T02:54:32;43.03;;;27.50;;
20482;SDS011;10400;53.198;6.592;2023-05-07T02:56:57;42.22;;;27.67;;
20482;SDS011;10400;53.198;6.592;2023-05-07T02:59:23;41.40;;;28.10;;
20482;SDS011;10400;53.198;6.592;2023-05-07T03:01:51;45.33;;;29.13;;
20482;SDS011;10400;53.198;6.592;2023-05-07T03:04:16;43.33;;;29.80;;
20482;SDS011;10400;53.198;6.592;2023-05-07T03:06:42;42.45;;;28.20;;
20482;SDS011;10400;53.198;6.592;2023-05-07T03:09:08;43.95;;;28.85;;
20482;SDS011;10400;53.198;6.592;2023-05-07T03:11:33;45.20;;;29.65;;
20482;SDS011;10400;53.198;6.592;2023-05-07T03:14:00;44.20;;;29.48;;
20482;SDS011;10400;53.198;6.592;2023-05-07T03:16:26;40.88;;;27.50;;
20482;SDS011;10400;53.198;6.592;2023-05-07T03:18:52;43.65;;;30.50;;
20482;SDS011;10400;53.198;6.592;2023-05-07T03:21:18;41.70;;;29.27;;
20482;SDS011;10400;53.198;6.592;2023-05-07T03:23:43;41.80;;;29.13;;
20482;SDS011;10400;53.198;6.592;2023-05-07T03:26:09;41.85;;;28.23;;
20482;SDS011;10400;53.198;6.592;2023-05-07T03:28:35;48.38;;;30.25;;
20482;SDS011;10400;53.198;6.592;2023-05-07T03:31:01;48.95;;;32.75;;
20482;SDS011;10400;53.198;6.592;2023-05-07T03:33:27;51.72;;;35.63;;
20482;SDS011;10400;53.198;6.592;2023-05-07T03:35:52;51.95;;;33.25;;
20482;SDS011;10400;53.198;6.592;2023-05-07T03:38:18;47.20;;;31.98;;
20482;SDS011;10400;53.198;6.592;2023-05-07T03:40:44;51.88;;;34.25;;
20482;SDS011;10400;53.198;6.592;2023-05-07T03:43:09;55.95;;;36.35;;
20482;SDS011;10400;53.198;6.592;2023-05-07T03:45:35;51.33;;;33.78;;
20482;SDS011;10400;53.198;6.592;2023-05-07T03:48:01;44.67;;;29.95;;
20482;SDS011;10400;53.198;6.592;2023-05-07T03:50:26;44.22;;;28.55;;
20482;SDS011;10400;53.198;6.592;2023-05-07T03:52:52;46.95;;;29.90;;
20482;SDS011;10400;53.198;6.592;2023-05-07T03:55:18;47.60;;;29.10;;
20482;SDS011;10400;53.198;6.592;2023-05-07T03:57:43;45.28;;;26.55;;
20482;SDS011;10400;53.198;6.592;2023-05-07T04:00:09;44.13;;;27.83;;
20482;SDS011;10400;53.198;6.592;2023-05-07T04:02:35;42.58;;;28.92;;
20482;SDS011;10400;53.198;6.592;2023-05-07T04:05:01;45.40;;;29.27;;
20482;SDS011;10400;53.198;6.592;2023-05-07T04:07:26;37.30;;;26.80;;
20482;SDS011;10400;53.198;6.592;2023-05-07T04:09:52;44.25;;;28.65;;
20482;SDS011;10400;53.198;6.592;2023-05-07T04:12:17;44.63;;;28.52;;
20482;SDS011;10400;53.198;6.592;2023-05-07T04:14:43;43.40;;;28.00;;
20482;SDS011;10400;53.198;6.592;2023-05-07T04:17:09;42.20;;;29.02;;
20482;SDS011;10400;53.198;6.592;2023-05-07T04:19:35;43.60;;;27.58;;
20482;SDS011;10400;53.198;6.592;2023-05-07T04:22:01;44.15;;;28.92;;
20482;SDS011;10400;53.198;6.592;2023-05-07T04:24:27;45.33;;;30.80;;
20482;SDS011;10400;53.198;6.592;2023-05-07T04:26:55;45.28;;;29.42;;
20482;SDS011;10400;53.198;6.592;2023-05-07T04:29:21;46.38;;;29.52;;
20482;SDS011;10400;53.198;6.592;2023-05-07T04:31:47;43.88;;;28.58;;
20482;SDS011;10400;53.198;6.592;2023-05-07T04:34:12;39.47;;;26.08;;
20482;SDS011;10400;53.198;6.592;2023-05-07T04:36:39;37.67;;;25.77;;
20482;SDS011;10400;53.198;6.592;2023-05-07T04:39:04;39.63;;;26.55;;
20482;SDS011;10400;53.198;6.592;2023-05-07T04:41:31;37.85;;;26.65;;
20482;SDS011;10400;53.198;6.592;2023-05-07T04:43:56;43.15;;;27.00;;
20482;SDS011;10400;53.198;6.592;2023-05-07T04:46:23;42.15;;;26.08;;
20482;SDS011;10400;53.198;6.592;2023-05-07T04:48:49;43.80;;;26.08;;
20482;SDS011;10400;53.198;6.592;2023-05-07T04:51:15;38.67;;;25.70;;
20482;SDS011;10400;53.198;6.592;2023-05-07T04:53:41;41.00;;;25.83;;
20482;SDS011;10400;53.198;6.592;2023-05-07T04:56:08;41.53;;;26.13;;
20482;SDS011;10400;53.198;6.592;2023-05-07T04:58:33;37.30;;;25.42;;
20482;SDS011;10400;53.198;6.592;2023-05-07T05:00:59;39.60;;;26.30;;
20482;SDS011;10400;53.198;6.592;2023-05-07T05:03:25;40.05;;;26.75;;
20482;SDS011;10400;53.198;6.592;2023-05-07T05:05:51;35.58;;;24.63;;
20482;SDS011;10400;53.198;6.592;2023-05-07T05:08:17;42.28;;;25.42;;
20482;SDS011;10400;53.198;6.592;2023-05-07T05:10:43;38.00;;;26.17;;
20482;SDS011;10400;53.198;6.592;2023-05-07T05:13:09;33.33;;;22.88;;
20482;SDS011;10400;53.198;6.592;2023-05-07T05:15:37;38.30;;;24.20;;
20482;SDS011;10400;53.198;6.592;2023-05-07T05:18:03;37.75;;;25.38;;
20482;SDS011;10400;53.198;6.592;2023-05-07T05:20:29;38.05;;;24.45;;
20482;SDS011;10400;53.198;6.592;2023-05-07T05:22:55;39.78;;;25.60;;
20482;SDS011;10400;53.198;6.592;2023-05-07T05:25:20;42.10;;;28.35;;
20482;SDS011;10400;53.198;6.592;2023-05-07T05:27:46;34.88;;;24.35;;
20482;SDS011;10400;53.198;6.592;2023-05-07T05:30:12;34.63;;;24.88;;
20482;SDS011;10400;53.198;6.592;2023-05-07T05:32:38;37.55;;;24.63;;
20482;SDS011;10400;53.198;6.592;2023-05-07T05:35:03;32.95;;;23.60;;
20482;SDS011;10400;53.198;6.592;2023-05-07T05:37:29;36.20;;;24.58;;
20482;SDS011;10400;53.198;6.592;2023-05-07T05:39:56;36.75;;;24.17;;
20482;SDS011;10400;53.198;6.592;2023-05-07T05:42:22;34.38;;;24.13;;
20482;SDS011;10400;53.198;6.592;2023-05-07T05:44:48;38.55;;;23.77;;
20482;SDS011;10400;53.198;6.592;2023-05-07T05:47:13;32.72;;;23.42;;
20482;SDS011;10400;53.198;6.592;2023-05-07T05:49:39;34.97;;;23.48;;
20482;SDS011;10400;53.198;6.592;2023-05-07T05:52:04;36.13;;;23.98;;
20482;SDS011;10400;53.198;6.592;2023-05-07T05:54:30;32.38;;;23.35;;
20482;SDS011;10400;53.198;6.592;2023-05-07T05:56:56;36.92;;;23.83;;
20482;SDS011;10400;53.198;6.592;2023-05-07T05:59:22;34.58;;;23.73;;
20482;SDS011;10400;53.198;6.592;2023-05-07T06:01:47;33.25;;;23.98;;
20482;SDS011;10400;53.198;6.592;2023-05-07T06:04:13;33.83;;;22.98;;
20482;SDS011;10400;53.198;6.592;2023-05-07T06:06:39;38.40;;;26.95;;
20482;SDS011;10400;53.198;6.592;2023-05-07T06:09:04;38.92;;;24.52;;
20482;SDS011;10400;53.198;6.592;2023-05-07T06:11:31;35.53;;;24.75;;
20482;SDS011;10400;53.198;6.592;2023-05-07T06:13:56;40.05;;;25.85;;
20482;SDS011;10400;53.198;6.592;2023-05-07T06:16:22;42.03;;;28.35;;
20482;SDS011;10400;53.198;6.592;2023-05-07T06:18:49;36.47;;;27.75;;
20482;SDS011;10400;53.198;6.592;2023-05-07T06:21:15;43.65;;;30.48;;
20482;SDS011;10400;53.198;6.592;2023-05-07T06:23:40;36.38;;;26.52;;
20482;SDS011;10400;53.198;6.592;2023-05-07T06:26:06;38.20;;;25.88;;
20482;SDS011;10400;53.198;6.592;2023-05-07T06:28:32;37.33;;;26.73;;
20482;SDS011;10400;53.198;6.592;2023-05-07T06:31:17;34.25;;;24.88;;
20482;SDS011;10400;53.198;6.592;2023-05-07T06:33:46;36.40;;;26.17;;
20482;SDS011;10400;53.198;6.592;2023-05-07T06:36:12;35.17;;;25.90;;
20482;SDS011;10400;53.198;6.592;2023-05-07T06:38:38;37.58;;;26.83;;
20482;SDS011;10400;53.198;6.592;2023-05-07T06:41:05;33.88;;;25.17;;
20482;SDS011;10400;53.198;6.592;2023-05-07T06:43:31;32.67;;;23.25;;
20482;SDS011;10400;53.198;6.592;2023-05-07T06:45:57;32.60;;;22.83;;
20482;SDS011;10400;53.198;6.592;2023-05-07T06:48:23;33.72;;;23.48;;
20482;SDS011;10400;53.198;6.592;2023-05-07T06:50:49;30.85;;;22.77;;
20482;SDS011;10400;53.198;6.592;2023-05-07T06:53:15;30.60;;;22.15;;
20482;SDS011;10400;53.198;6.592;2023-05-07T06:55:41;33.17;;;22.52;;
20482;SDS011;10400;53.198;6.592;2023-05-07T06:58:06;30.83;;;21.75;;
20482;SDS011;10400;53.198;6.592;2023-05-07T07:00:32;33.65;;;22.13;;
20482;SDS011;10400;53.198;6.592;2023-05-07T07:02:58;31.30;;;22.08;;
20482;SDS011;10400;53.198;6.592;2023-05-07T07:05:25;32.60;;;22.13;;
20482;SDS011;10400;53.198;6.592;2023-05-07T07:07:51;30.20;;;20.30;;
20482;SDS011;10400;53.198;6.592;2023-05-07T07:10:20;28.63;;;20.52;;
20482;SDS011;10400;53.198;6.592;2023-05-07T07:12:46;29.55;;;20.85;;
20482;SDS011;10400;53.198;6.592;2023-05-07T07:15:12;30.23;;;21.10;;
20482;SDS011;10400;53.198;6.592;2023-05-07T07:17:38;29.55;;;21.67;;
20482;SDS011;10400;53.198;6.592;2023-05-07T07:20:04;32.53;;;21.80;;
20482;SDS011;10400;53.198;6.592;2023-05-07T07:22:30;33.13;;;21.65;;
20482;SDS011;10400;53.198;6.592;2023-05-07T07:24:56;28.55;;;20.23;;
20482;SDS011;10400;53.198;6.592;2023-05-07T07:27:22;33.42;;;21.25;;
20482;SDS011;10400;53.198;6.592;2023-05-07T07:29:47;33.25;;;22.15;;
20482;SDS011;10400;53.198;6.592;2023-05-07T07:32:13;32.70;;;22.13;;
20482;SDS011;10400;53.198;6.592;2023-05-07T07:34:39;30.70;;;21.42;;
20482;SDS011;10400;53.198;6.592;2023-05-07T07:37:04;29.65;;;20.10;;
20482;SDS011;10400;53.198;6.592;2023-05-07T07:39:34;32.38;;;21.08;;
20482;SDS011;10400;53.198;6.592;2023-05-07T07:42:02;40.80;;;22.55;;
20482;SDS011;10400;53.198;6.592;2023-05-07T07:44:28;32.17;;;22.08;;
20482;SDS011;10400;53.198;6.592;2023-05-07T07:46:53;34.17;;;22.42;;
20482;SDS011;10400;53.198;6.592;2023-05-07T07:49:19;30.40;;;21.65;;
20482;SDS011;10400;53.198;6.592;2023-05-07T07:51:45;32.25;;;21.52;;
20482;SDS011;10400;53.198;6.592;2023-05-07T07:54:10;35.85;;;22.35;;
20482;SDS011;10400;53.198;6.592;2023-05-07T07:56:36;33.22;;;22.20;;
20482;SDS011;10400;53.198;6.592;2023-05-07T07:59:03;32.78;;;21.85;;
20482;SDS011;10400;53.198;6.592;2023-05-07T08:01:31;33.95;;;23.27;;
20482;SDS011;10400;53.198;6.592;2023-05-07T08:03:57;31.30;;;20.88;;
20482;SDS011;10400;53.198;6.592;2023-05-07T08:06:24;32.72;;;22.95;;
20482;SDS011;10400;53.198;6.592;2023-05-07T08:08:50;35.70;;;21.95;;
20482;SDS011;10400;53.198;6.592;2023-05-07T08:11:16;32.88;;;22.10;;
20482;SDS011;10400;53.198;6.592;2023-05-07T08:13:42;31.58;;;21.38;;
20482;SDS011;10400;53.198;6.592;2023-05-07T08:16:08;29.55;;;20.73;;
20482;SDS011;10400;53.198;6.592;2023-05-07T08:18:34;33.38;;;21.83;;
20482;SDS011;10400;53.198;6.592;2023-05-07T08:21:00;33.22;;;21.30;;
20482;SDS011;10400;53.198;6.592;2023-05-07T08:23:26;31.77;;;20.98;;
20482;SDS011;10400;53.198;6.592;2023-05-07T08:25:51;31.38;;;20.25;;
20482;SDS011;10400;53.198;6.592;2023-05-07T08:28:17;31.85;;;22.38;;
20482;SDS011;10400;53.198;6.592;2023-05-07T08:30:44;32.13;;;20.88;;
20482;SDS011;10400;53.198;6.592;2023-05-07T08:33:10;34.53;;;22.08;;
20482;SDS011;10400;53.198;6.592;2023-05-07T08:35:36;29.83;;;21.42;;
20482;SDS011;10400;53.198;6.592;2023-05-07T08:38:01;32.65;;;22.17;;
20482;SDS011;10400;53.198;6.592;2023-05-07T08:40:27;31.08;;;20.08;;
20482;SDS011;10400;53.198;6.592;2023-05-07T08:42:54;32.58;;;21.85;;
20482;SDS011;10400;53.198;6.592;2023-05-07T08:45:21;29.80;;;20.63;;
20482;SDS011;10400;53.198;6.592;2023-05-07T08:47:52;31.23;;;21.08;;
20482;SDS011;10400;53.198;6.592;2023-05-07T08:50:23;30.98;;;21.50;;
20482;SDS011;10400;53.198;6.592;2023-05-07T08:52:49;28.58;;;19.40;;
20482;SDS011;10400;53.198;6.592;2023-05-07T08:55:14;30.75;;;20.27;;
20482;SDS011;10400;53.198;6.592;2023-05-07T08:57:40;28.65;;;20.67;;
20482;SDS011;10400;53.198;6.592;2023-05-07T09:00:06;28.63;;;20.20;;
20482;SDS011;10400;53.198;6.592;2023-05-07T09:02:32;27.73;;;20.25;;
20482;SDS011;10400;53.198;6.592;2023-05-07T09:04:59;29.13;;;20.08;;
20482;SDS011;10400;53.198;6.592;2023-05-07T09:07:25;33.47;;;20.67;;
20482;SDS011;10400;53.198;6.592;2023-05-07T09:09:51;30.83;;;20.55;;
20482;SDS011;10400;53.198;6.592;2023-05-07T09:12:18;30.38;;;20.80;;
20482;SDS011;10400;53.198;6.592;2023-05-07T09:14:44;29.88;;;20.83;;
20482;SDS011;10400;53.198;6.592;2023-05-07T09:17:10;29.67;;;19.73;;
20482;SDS011;10400;53.198;6.592;2023-05-07T09:19:36;29.33;;;20.65;;
20482;SDS011;10400;53.198;6.592;2023-05-07T09:22:02;30.38;;;19.98;;
20482;SDS011;10400;53.198;6.592;2023-05-07T09:24:29;30.52;;;20.98;;
20482;SDS011;10400;53.198;6.592;2023-05-07T09:26:59;30.52;;;20.70;;
20482;SDS011;10400;53.198;6.592;2023-05-07T09:29:27;30.08;;;20.52;;
20482;SDS011;10400;53.198;6.592;2023-05-07T09:31:55;28.23;;;19.75;;
20482;SDS011;10400;53.198;6.592;2023-05-07T09:34:21;25.02;;;19.58;;
20482;SDS011;10400;53.198;6.592;2023-05-07T09:36:47;28.92;;;20.60;;
20482;SDS011;10400;53.198;6.592;2023-05-07T09:39:13;29.02;;;19.42;;
20482;SDS011;10400;53.198;6.592;2023-05-07T09:41:48;30.30;;;20.45;;
20482;SDS011;10400;53.198;6.592;2023-05-07T09:44:19;27.80;;;19.73;;
20482;SDS011;10400;53.198;6.592;2023-05-07T09:46:46;27.48;;;19.42;;
20482;SDS011;10400;53.198;6.592;2023-05-07T09:49:22;27.17;;;19.15;;
20482;SDS011;10400;53.198;6.592;2023-05-07T09:51:50;29.65;;;19.27;;
20482;SDS011;10400;53.198;6.592;2023-05-07T09:54:17;25.17;;;18.30;;
20482;SDS011;10400;53.198;6.592;2023-05-07T09:56:43;26.67;;;18.83;;
20482;SDS011;10400;53.198;6.592;2023-05-07T09:59:10;28.20;;;19.55;;
20482;SDS011;10400;53.198;6.592;2023-05-07T10:01:38;28.20;;;19.35;;
20482;SDS011;10400;53.198;6.592;2023-05-07T10:04:07;28.33;;;19.80;;
20482;SDS011;10400;53.198;6.592;2023-05-07T10:06:36;26.92;;;19.40;;
20482;SDS011;10400;53.198;6.592;2023-05-07T10:09:05;24.05;;;18.02;;
20482;SDS011;10400;53.198;6.592;2023-05-07T10:11:34;25.05;;;18.55;;
20482;SDS011;10400;53.198;6.592;2023-05-07T10:14:00;25.63;;;17.90;;
20482;SDS011;10400;53.198;6.592;2023-05-07T10:16:27;25.27;;;18.45;;
20482;SDS011;10400;53.198;6.592;2023-05-07T10:18:57;24.40;;;18.45;;
20482;SDS011;10400;53.198;6.592;2023-05-07T10:21:24;27.48;;;18.00;;
20482;SDS011;10400;53.198;6.592;2023-05-07T10:24:13;26.00;;;18.27;;
20482;SDS011;10400;53.198;6.592;2023-05-07T10:26:45;25.70;;;18.25;;
20482;SDS011;10400;53.198;6.592;2023-05-07T10:34:22;22.75;;;16.77;;
20482;SDS011;10400;53.198;6.592;2023-05-07T10:36:51;24.95;;;17.05;;
20482;SDS011;10400;53.198;6.592;2023-05-07T10:39:17;24.38;;;17.88;;
20482;SDS011;10400;53.198;6.592;2023-05-07T10:41:46;24.00;;;17.02;;
20482;SDS011;10400;53.198;6.592;2023-05-07T10:44:12;22.05;;;16.58;;
20482;SDS011;10400;53.198;6.592;2023-05-07T10:47:06;24.00;;;17.25;;
20482;SDS011;10400;53.198;6.592;2023-05-07T10:54:43;21.98;;;15.73;;
20482;SDS011;10400;53.198;6.592;2023-05-07T11:00:01;21.77;;;16.30;;
20482;SDS011;10400;53.198;6.592;2023-05-07T11:05:29;20.15;;;16.67;;
20482;SDS011;10400;53.198;6.592;2023-05-07T11:07:57;21.55;;;15.38;;
20482;SDS011;10400;53.198;6.592;2023-05-07T11:13:15;20.55;;;15.52;;
20482;SDS011;10400;53.198;6.592;2023-05-07T11:15:42;18.88;;;14.85;;
20482;SDS011;10400;53.198;6.592;2023-05-07T11:18:10;20.33;;;15.00;;
20482;SDS011;10400;53.198;6.592;2023-05-07T11:26:00;18.50;;;14.98;;
20482;SDS011;10400;53.198;6.592;2023-05-07T11:28:36;19.50;;;15.30;;
20482;SDS011;10400;53.198;6.592;2023-05-07T11:31:03;18.73;;;14.18;;
20482;SDS011;10400;53.198;6.592;2023-05-07T11:33:30;16.67;;;13.93;;
20482;SDS011;10400;53.198;6.592;2023-05-07T11:35:56;18.17;;;14.45;;
20482;SDS011;10400;53.198;6.592;2023-05-07T11:38:22;18.65;;;14.43;;
20482;SDS011;10400;53.198;6.592;2023-05-07T11:40:53;17.83;;;14.23;;
20482;SDS011;10400;53.198;6.592;2023-05-07T11:43:20;16.92;;;13.93;;
20482;SDS011;10400;53.198;6.592;2023-05-07T11:45:46;16.50;;;14.20;;
20482;SDS011;10400;53.198;6.592;2023-05-07T11:48:13;18.02;;;14.43;;
20482;SDS011;10400;53.198;6.592;2023-05-07T11:50:53;17.42;;;13.65;;
20482;SDS011;10400;53.198;6.592;2023-05-07T11:53:26;17.25;;;13.80;;
20482;SDS011;10400;53.198;6.592;2023-05-07T11:55:55;19.05;;;14.43;;
20482;SDS011;10400;53.198;6.592;2023-05-07T11:58:22;18.45;;;14.13;;
20482;SDS011;10400;53.198;6.592;2023-05-07T12:00:49;17.10;;;13.70;;
20482;SDS011;10400;53.198;6.592;2023-05-07T12:03:15;15.45;;;13.68;;
20482;SDS011;10400;53.198;6.592;2023-05-07T12:05:41;17.00;;;13.90;;
20482;SDS011;10400;53.198;6.592;2023-05-07T12:08:07;17.52;;;13.27;;
20482;SDS011;10400;53.198;6.592;2023-05-07T12:10:33;15.35;;;13.60;;
20482;SDS011;10400;53.198;6.592;2023-05-07T12:12:58;14.65;;;13.00;;
20482;SDS011;10400;53.198;6.592;2023-05-07T12:15:24;17.33;;;13.05;;
20482;SDS011;10400;53.198;6.592;2023-05-07T12:17:50;16.55;;;12.73;;
20482;SDS011;10400;53.198;6.592;2023-05-07T12:20:17;14.52;;;13.00;;
20482;SDS011;10400;53.198;6.592;2023-05-07T12:22:43;16.65;;;13.02;;
20482;SDS011;10400;53.198;6.592;2023-05-07T12:25:09;16.83;;;12.60;;
20482;SDS011;10400;53.198;6.592;2023-05-07T12:27:36;16.23;;;14.05;;
20482;SDS011;10400;53.198;6.592;2023-05-07T12:30:04;16.20;;;13.15;;
20482;SDS011;10400;53.198;6.592;2023-05-07T12:32:30;15.00;;;13.23;;
20482;SDS011;10400;53.198;6.592;2023-05-07T12:35:01;16.73;;;12.65;;
20482;SDS011;10400;53.198;6.592;2023-05-07T12:37:27;15.23;;;13.38;;
20482;SDS011;10400;53.198;6.592;2023-05-07T12:40:05;15.93;;;13.27;;
20482;SDS011;10400;53.198;6.592;2023-05-07T12:42:33;16.33;;;13.15;;
20482;SDS011;10400;53.198;6.592;2023-05-07T12:45:07;17.02;;;13.15;;
20482;SDS011;10400;53.198;6.592;2023-05-07T12:47:33;19.08;;;13.30;;
20482;SDS011;10400;53.198;6.592;2023-05-07T12:49:59;15.63;;;12.90;;
20482;SDS011;10400;53.198;6.592;2023-05-07T12:52:25;14.73;;;12.65;;
20482;SDS011;10400;53.198;6.592;2023-05-07T12:54:51;15.82;;;12.70;;
20482;SDS011;10400;53.198;6.592;2023-05-07T12:57:18;14.45;;;12.43;;
20482;SDS011;10400;53.198;6.592;2023-05-07T12:59:45;13.70;;;12.30;;
20482;SDS011;10400;53.198;6.592;2023-05-07T13:02:11;15.68;;;13.05;;
20482;SDS011;10400;53.198;6.592;2023-05-07T13:04:37;15.73;;;12.68;;
20482;SDS011;10400;53.198;6.592;2023-05-07T13:07:03;14.23;;;12.73;;
20482;SDS011;10400;53.198;6.592;2023-05-07T13:09:29;16.17;;;13.55;;
20482;SDS011;10400;53.198;6.592;2023-05-07T13:11:55;14.88;;;12.10;;
20482;SDS011;10400;53.198;6.592;2023-05-07T13:14:26;16.98;;;13.88;;
20482;SDS011;10400;53.198;6.592;2023-05-07T13:16:52;18.77;;;13.25;;
20482;SDS011;10400;53.198;6.592;2023-05-07T13:19:17;13.55;;;12.13;;
20482;SDS011;10400;53.198;6.592;2023-05-07T13:21:43;16.50;;;12.52;;
20482;SDS011;10400;53.198;6.592;2023-05-07T13:24:08;14.40;;;11.85;;
20482;SDS011;10400;53.198;6.592;2023-05-07T13:26:34;14.60;;;12.15;;
20482;SDS011;10400;53.198;6.592;2023-05-07T13:29:00;14.60;;;11.90;;
20482;SDS011;10400;53.198;6.592;2023-05-07T13:31:25;13.68;;;12.20;;
20482;SDS011;10400;53.198;6.592;2023-05-07T13:33:51;13.05;;;11.65;;
20482;SDS011;10400;53.198;6.592;2023-05-07T13:36:17;12.05;;;10.63;;
20482;SDS011;10400;53.198;6.592;2023-05-07T13:38:43;14.32;;;12.82;;
20482;SDS011;10400;53.198;6.592;2023-05-07T13:41:09;14.25;;;12.65;;
20482;SDS011;10400;53.198;6.592;2023-05-07T13:43:34;12.55;;;11.10;;
20482;SDS011;10400;53.198;6.592;2023-05-07T13:46:00;11.73;;;10.52;;
20482;SDS011;10400;53.198;6.592;2023-05-07T13:48:26;11.52;;;10.27;;
20482;SDS011;10400;53.198;6.592;2023-05-07T13:50:53;12.98;;;11.55;;
20482;SDS011;10400;53.198;6.592;2023-05-07T13:53:19;14.93;;;11.32;;
20482;SDS011;10400;53.198;6.592;2023-05-07T13:55:45;11.55;;;10.27;;
20482;SDS011;10400;53.198;6.592;2023-05-07T13:58:10;14.85;;;12.02;;
20482;SDS011;10400;53.198;6.592;2023-05-07T14:00:36;12.27;;;10.98;;
20482;SDS011;10400;53.198;6.592;2023-05-07T14:03:02;14.93;;;11.50;;
20482;SDS011;10400;53.198;6.592;2023-05-07T14:05:29;12.65;;;11.40;;
20482;SDS011;10400;53.198;6.592;2023-05-07T14:07:56;13.13;;;10.98;;
20482;SDS011;10400;53.198;6.592;2023-05-07T14:10:22;12.65;;;11.05;;
20482;SDS011;10400;53.198;6.592;2023-05-07T14:12:48;12.52;;;10.93;;
20482;SDS011;10400;53.198;6.592;2023-05-07T14:15:14;12.13;;;10.82;;
20482;SDS011;10400;53.198;6.592;2023-05-07T14:17:41;13.77;;;11.13;;
20482;SDS011;10400;53.198;6.592;2023-05-07T14:20:07;13.07;;;11.10;;
20482;SDS011;10400;53.198;6.592;2023-05-07T14:22:33;14.95;;;10.43;;
20482;SDS011;10400;53.198;6.592;2023-05-07T14:24:59;12.40;;;11.05;;
20482;SDS011;10400;53.198;6.592;2023-05-07T14:27:25;12.32;;;11.02;;
20482;SDS011;10400;53.198;6.592;2023-05-07T14:29:50;11.98;;;10.60;;
20482;SDS011;10400;53.198;6.592;2023-05-07T14:32:19;11.38;;;10.13;;
20482;SDS011;10400;53.198;6.592;2023-05-07T14:34:46;12.52;;;10.88;;
20482;SDS011;10400;53.198;6.592;2023-05-07T14:37:11;12.23;;;10.93;;
20482;SDS011;10400;53.198;6.592;2023-05-07T14:39:37;12.02;;;10.82;;
20482;SDS011;10400;53.198;6.592;2023-05-07T14:42:03;11.80;;;10.60;;
20482;SDS011;10400;53.198;6.592;2023-05-07T14:44:29;11.52;;;10.43;;
20482;SDS011;10400;53.198;6.592;2023-05-07T14:46:56;10.77;;;9.65;;
20482;SDS011;10400;53.198;6.592;2023-05-07T14:49:21;13.20;;;11.05;;
20482;SDS011;10400;53.198;6.592;2023-05-07T14:51:47;15.60;;;10.65;;
20482;SDS011;10400;53.198;6.592;2023-05-07T14:54:13;11.65;;;10.50;;
20482;SDS011;10400;53.198;6.592;2023-05-07T14:56:39;13.32;;;11.23;;
20482;SDS011;10400;53.198;6.592;2023-05-07T14:59:06;11.48;;;10.38;;
20482;SDS011;10400;53.198;6.592;2023-05-07T15:01:32;11.55;;;10.35;;
20482;SDS011;10400;53.198;6.592;2023-05-07T15:03:59;12.20;;;9.75;;
20482;SDS011;10400;53.198;6.592;2023-05-07T15:06:24;11.98;;;10.77;;
20482;SDS011;10400;53.198;6.592;2023-05-07T15:08:51;12.13;;;10.88;;
20482;SDS011;10400;53.198;6.592;2023-05-07T15:11:17;14.95;;;10.52;;